Kupino, Russia
Current Conditions -  °F | °C
As of 3:30 PM on Sunday 21 Dec 2014 (Local Time) from UASP Reporting Station
Clear Clear  
Wind Chill:   Ceiling: Unl
Heat Index: 16°   Visibility: 6mi
Dew Point: 12°   Wind: 7mph
Humidity: 86%   Direction: 210°SSW
Pressure: 30.18"   Gusts: NA
Location:  54.36°N, 77.28°E
Report Text: UASP 210830Z 21003MPS CAVOK M09/M11 Q1022 R21/390145 NOSIG RMKQFE755/1007
Loading
Personal Weather Stations






























Interactive Weather Map New forecast layout! Learn more

10-Day Weather Forecast

Advertisements
Track Severe Weather on mobile